X  Cerrar Datos meteorológicos de aviación METAR     LYNI Nis Airport
Temperatura
38°C Temperatura
15°C Punto de rocío
25% Humedad



Viento
1 M/S
2 MPH
3 KM/H
2 NUDO



Calma
N
Condiciones actuales

Parcialmente nublado Parcialmente nublado
Presión 1009.82 (hPa) - 29.82 (inHg)
Visibilidad 6 (milla) - 9.7 (km)
Aeropuerto
Código de aeropuerto LYNI

localidad: Nis Airport
Distancia: 63 (km)

Metar:
LYNI 141430Z VRB02KT 9999 FEW050 38/15 Q1010 NOSIG

Hora: 14-07-2024 16:30 CEST